sensor_id;sensor_type;location;lat;lon;timestamp;pressure;altitude;pressure_sealevel;temperature;humidity
59329;BME280;45100;46.926;7.452;2023-04-25T00:00:44;94824.49;;;9.32;58.89
59329;BME280;45100;46.926;7.452;2023-04-25T00:03:15;94826.52;;;9.32;59.22
59329;BME280;45100;46.926;7.452;2023-04-25T00:05:45;94823.52;;;9.32;59.12
59329;BME280;45100;46.926;7.452;2023-04-25T00:08:16;94820.89;;;9.30;59.44
59329;BME280;45100;46.926;7.452;2023-04-25T00:10:47;94822.55;;;9.30;60.05
59329;BME280;45100;46.926;7.452;2023-04-25T00:13:18;94817.75;;;9.29;59.89
59329;BME280;45100;46.926;7.452;2023-04-25T00:15:49;94814.20;;;9.29;60.83
59329;BME280;45100;46.926;7.452;2023-04-25T00:18:20;94813.01;;;9.29;61.08
59329;BME280;45100;46.926;7.452;2023-04-25T00:20:50;94807.53;;;9.28;61.17
59329;BME280;45100;46.926;7.452;2023-04-25T00:23:22;94806.80;;;9.29;61.28
59329;BME280;45100;46.926;7.452;2023-04-25T00:25:52;94803.06;;;9.28;61.23
59329;BME280;45100;46.926;7.452;2023-04-25T00:28:22;94804.55;;;9.27;61.23
59329;BME280;45100;46.926;7.452;2023-04-25T00:30:53;94799.73;;;9.26;62.07
59329;BME280;45100;46.926;7.452;2023-04-25T00:33:24;94804.09;;;9.24;62.34
59329;BME280;45100;46.926;7.452;2023-04-25T00:35:55;94804.27;;;9.21;60.36
59329;BME280;45100;46.926;7.452;2023-04-25T00:38:25;94797.75;;;9.18;61.19
59329;BME280;45100;46.926;7.452;2023-04-25T00:40:57;94801.27;;;9.17;61.06
59329;BME280;45100;46.926;7.452;2023-04-25T00:43:28;94797.19;;;9.16;60.84
59329;BME280;45100;46.926;7.452;2023-04-25T00:45:59;94799.02;;;9.16;61.81
59329;BME280;45100;46.926;7.452;2023-04-25T00:48:27;94792.17;;;9.15;62.14
59329;BME280;45100;46.926;7.452;2023-04-25T00:50:59;94788.05;;;9.12;62.70
59329;BME280;45100;46.926;7.452;2023-04-25T00:53:28;94784.52;;;9.10;62.40
59329;BME280;45100;46.926;7.452;2023-04-25T00:55:58;94771.84;;;9.08;62.73
59329;BME280;45100;46.926;7.452;2023-04-25T00:58:29;94771.64;;;9.06;62.75
59329;BME280;45100;46.926;7.452;2023-04-25T01:01:02;94770.48;;;9.03;62.87
59329;BME280;45100;46.926;7.452;2023-04-25T01:03:33;94766.20;;;9.01;63.66
59329;BME280;45100;46.926;7.452;2023-04-25T01:06:01;94772.50;;;9.00;63.40
59329;BME280;45100;46.926;7.452;2023-04-25T01:08:31;94770.38;;;8.99;64.05
59329;BME280;45100;46.926;7.452;2023-04-25T01:11:02;94773.17;;;8.98;63.83
59329;BME280;45100;46.926;7.452;2023-04-25T01:13:33;94771.38;;;8.96;63.78
59329;BME280;45100;46.926;7.452;2023-04-25T01:16:03;94771.66;;;8.94;64.06
59329;BME280;45100;46.926;7.452;2023-04-25T01:18:33;94766.20;;;8.92;64.33
59329;BME280;45100;46.926;7.452;2023-04-25T01:21:08;94767.41;;;8.91;65.27
59329;BME280;45100;46.926;7.452;2023-04-25T01:23:35;94766.08;;;8.92;65.41
59329;BME280;45100;46.926;7.452;2023-04-25T01:26:10;94759.51;;;8.91;65.46
59329;BME280;45100;46.926;7.452;2023-04-25T01:28:37;94760.75;;;8.90;65.69
59329;BME280;45100;46.926;7.452;2023-04-25T01:31:06;94760.09;;;8.89;66.88
59329;BME280;45100;46.926;7.452;2023-04-25T01:33:37;94759.47;;;8.89;66.46
59329;BME280;45100;46.926;7.452;2023-04-25T01:36:07;94751.18;;;8.90;63.97
59329;BME280;45100;46.926;7.452;2023-04-25T01:38:38;94754.61;;;8.89;65.08
59329;BME280;45100;46.926;7.452;2023-04-25T01:41:08;94758.64;;;8.85;66.21
59329;BME280;45100;46.926;7.452;2023-04-25T01:43:39;94753.64;;;8.82;67.40
59329;BME280;45100;46.926;7.452;2023-04-25T01:46:10;94752.24;;;8.80;66.91
59329;BME280;45100;46.926;7.452;2023-04-25T01:48:40;94750.73;;;8.82;66.06
59329;BME280;45100;46.926;7.452;2023-04-25T01:51:12;94745.97;;;8.82;65.00
59329;BME280;45100;46.926;7.452;2023-04-25T01:53:42;94750.19;;;8.83;65.59
59329;BME280;45100;46.926;7.452;2023-04-25T01:56:13;94751.47;;;8.84;64.83
59329;BME280;45100;46.926;7.452;2023-04-25T01:58:43;94751.62;;;8.84;64.53
59329;BME280;45100;46.926;7.452;2023-04-25T02:01:15;94749.94;;;8.85;64.79
59329;BME280;45100;46.926;7.452;2023-04-25T02:03:45;94749.67;;;8.86;64.97
59329;BME280;45100;46.926;7.452;2023-04-25T02:06:15;94751.62;;;8.88;65.06
59329;BME280;45100;46.926;7.452;2023-04-25T02:08:46;94749.42;;;8.88;63.35
59329;BME280;45100;46.926;7.452;2023-04-25T02:11:17;94746.93;;;8.86;63.26
59329;BME280;45100;46.926;7.452;2023-04-25T02:13:47;94746.15;;;8.84;63.32
59329;BME280;45100;46.926;7.452;2023-04-25T02:16:18;94748.81;;;8.78;63.45
59329;BME280;45100;46.926;7.452;2023-04-25T02:18:49;94748.31;;;8.73;64.87
59329;BME280;45100;46.926;7.452;2023-04-25T02:21:20;94746.27;;;8.71;64.80
59329;BME280;45100;46.926;7.452;2023-04-25T02:26:26;94728.89;;;8.70;64.00
59329;BME280;45100;46.926;7.452;2023-04-25T02:31:28;94720.86;;;8.62;63.69
59329;BME280;45100;46.926;7.452;2023-04-25T02:33:59;94718.34;;;8.55;62.84
59329;BME280;45100;46.926;7.452;2023-04-25T02:36:34;94726.83;;;8.50;62.88
59329;BME280;45100;46.926;7.452;2023-04-25T02:39:01;94719.61;;;8.46;62.49
59329;BME280;45100;46.926;7.452;2023-04-25T02:41:31;94720.41;;;8.44;62.56
59329;BME280;45100;46.926;7.452;2023-04-25T02:44:01;94713.64;;;8.40;61.84
59329;BME280;45100;46.926;7.452;2023-04-25T02:46:32;94719.22;;;8.37;61.66
59329;BME280;45100;46.926;7.452;2023-04-25T02:49:03;94717.22;;;8.33;61.97
59329;BME280;45100;46.926;7.452;2023-04-25T02:51:34;94712.78;;;8.29;62.15
59329;BME280;45100;46.926;7.452;2023-04-25T02:54:04;94716.83;;;8.25;62.08
59329;BME280;45100;46.926;7.452;2023-04-25T02:56:35;94717.73;;;8.21;62.58
59329;BME280;45100;46.926;7.452;2023-04-25T02:59:06;94718.92;;;8.18;63.70
59329;BME280;45100;46.926;7.452;2023-04-25T03:01:36;94716.11;;;8.15;63.71
59329;BME280;45100;46.926;7.452;2023-04-25T03:04:07;94719.73;;;8.12;64.53
59329;BME280;45100;46.926;7.452;2023-04-25T03:06:37;94713.41;;;8.08;65.07
59329;BME280;45100;46.926;7.452;2023-04-25T03:09:08;94701.32;;;8.01;65.20
59329;BME280;45100;46.926;7.452;2023-04-25T03:11:39;94695.20;;;7.94;65.90
59329;BME280;45100;46.926;7.452;2023-04-25T03:14:10;94696.32;;;7.85;66.67
59329;BME280;45100;46.926;7.452;2023-04-25T03:16:41;94697.36;;;7.79;66.64
59329;BME280;45100;46.926;7.452;2023-04-25T03:19:12;94702.98;;;7.74;67.28
59329;BME280;45100;46.926;7.452;2023-04-25T03:21:42;94707.60;;;7.72;67.35
59329;BME280;45100;46.926;7.452;2023-04-25T03:24:13;94708.14;;;7.67;67.45
59329;BME280;45100;46.926;7.452;2023-04-25T03:26:44;94709.55;;;7.63;67.42
59329;BME280;45100;46.926;7.452;2023-04-25T03:29:15;94706.34;;;7.57;67.67
59329;BME280;45100;46.926;7.452;2023-04-25T03:31:46;94711.05;;;7.55;66.80
59329;BME280;45100;46.926;7.452;2023-04-25T03:34:16;94709.33;;;7.53;67.12
59329;BME280;45100;46.926;7.452;2023-04-25T03:36:47;94701.52;;;7.50;67.33
59329;BME280;45100;46.926;7.452;2023-04-25T03:39:17;94701.73;;;7.48;67.38
59329;BME280;45100;46.926;7.452;2023-04-25T03:41:47;94700.88;;;7.45;67.45
59329;BME280;45100;46.926;7.452;2023-04-25T03:44:18;94703.40;;;7.43;67.83
59329;BME280;45100;46.926;7.452;2023-04-25T03:46:49;94710.59;;;7.43;68.24
59329;BME280;45100;46.926;7.452;2023-04-25T03:49:20;94711.97;;;7.45;68.63
59329;BME280;45100;46.926;7.452;2023-04-25T03:51:50;94703.05;;;7.48;68.66
59329;BME280;45100;46.926;7.452;2023-04-25T03:54:21;94701.91;;;7.45;68.75
59329;BME280;45100;46.926;7.452;2023-04-25T03:56:52;94704.86;;;7.40;69.12
59329;BME280;45100;46.926;7.452;2023-04-25T03:59:22;94699.97;;;7.35;69.66
59329;BME280;45100;46.926;7.452;2023-04-25T04:01:54;94705.16;;;7.31;70.34
59329;BME280;45100;46.926;7.452;2023-04-25T04:04:24;94709.80;;;7.29;70.70
59329;BME280;45100;46.926;7.452;2023-04-25T04:06:54;94707.56;;;7.26;70.49
59329;BME280;45100;46.926;7.452;2023-04-25T04:09:26;94702.98;;;7.23;70.86
59329;BME280;45100;46.926;7.452;2023-04-25T04:11:56;94700.11;;;7.19;71.42
59329;BME280;45100;46.926;7.452;2023-04-25T04:14:27;94703.59;;;7.17;71.86
59329;BME280;45100;46.926;7.452;2023-04-25T04:16:57;94704.37;;;7.15;71.94
59329;BME280;45100;46.926;7.452;2023-04-25T04:19:28;94703.66;;;7.16;72.35
59329;BME280;45100;46.926;7.452;2023-04-25T04:21:58;94702.24;;;7.16;72.50
59329;BME280;45100;46.926;7.452;2023-04-25T04:24:29;94695.91;;;7.16;72.75
59329;BME280;45100;46.926;7.452;2023-04-25T04:27:00;94693.16;;;7.14;72.53
59329;BME280;45100;46.926;7.452;2023-04-25T04:29:31;94694.84;;;7.11;73.02
59329;BME280;45100;46.926;7.452;2023-04-25T04:32:02;94690.61;;;7.09;73.30
59329;BME280;45100;46.926;7.452;2023-04-25T04:34:31;94694.43;;;7.10;73.82
59329;BME280;45100;46.926;7.452;2023-04-25T04:37:03;94693.74;;;7.12;73.96
59329;BME280;45100;46.926;7.452;2023-04-25T04:39:33;94695.72;;;7.15;74.46
59329;BME280;45100;46.926;7.452;2023-04-25T04:42:04;94699.94;;;7.20;74.17
59329;BME280;45100;46.926;7.452;2023-04-25T04:44:33;94706.55;;;7.24;74.05
59329;BME280;45100;46.926;7.452;2023-04-25T04:47:07;94707.08;;;7.26;73.84
59329;BME280;45100;46.926;7.452;2023-04-25T04:49:34;94708.03;;;7.29;73.48
59329;BME280;45100;46.926;7.452;2023-04-25T04:52:05;94710.84;;;7.32;73.40
59329;BME280;45100;46.926;7.452;2023-04-25T04:54:36;94707.56;;;7.33;73.66
59329;BME280;45100;46.926;7.452;2023-04-25T04:57:07;94708.35;;;7.36;73.69
59329;BME280;45100;46.926;7.452;2023-04-25T04:59:38;94707.28;;;7.38;74.94
59329;BME280;45100;46.926;7.452;2023-04-25T05:02:08;94716.83;;;7.39;74.93
59329;BME280;45100;46.926;7.452;2023-04-25T05:04:39;94726.50;;;7.38;74.37
59329;BME280;45100;46.926;7.452;2023-04-25T05:07:10;94725.94;;;7.35;74.48
59329;BME280;45100;46.926;7.452;2023-04-25T05:09:40;94723.09;;;7.33;75.48
59329;BME280;45100;46.926;7.452;2023-04-25T05:12:11;94727.42;;;7.34;76.15
59329;BME280;45100;46.926;7.452;2023-04-25T05:14:42;94724.48;;;7.37;77.07
59329;BME280;45100;46.926;7.452;2023-04-25T05:17:12;94731.39;;;7.38;76.28
59329;BME280;45100;46.926;7.452;2023-04-25T05:19:43;94742.41;;;7.38;76.72
59329;BME280;45100;46.926;7.452;2023-04-25T05:22:14;94756.34;;;7.36;76.68
59329;BME280;45100;46.926;7.452;2023-04-25T05:24:45;94760.41;;;7.32;76.91
59329;BME280;45100;46.926;7.452;2023-04-25T05:27:17;94768.01;;;7.28;77.53
59329;BME280;45100;46.926;7.452;2023-04-25T05:29:45;94775.53;;;7.28;78.82
59329;BME280;45100;46.926;7.452;2023-04-25T05:32:16;94775.78;;;7.27;80.28
59329;BME280;45100;46.926;7.452;2023-04-25T05:34:47;94777.56;;;7.24;80.71
59329;BME280;45100;46.926;7.452;2023-04-25T05:37:18;94767.36;;;7.21;81.47
59329;BME280;45100;46.926;7.452;2023-04-25T05:39:48;94764.02;;;7.18;80.65
59329;BME280;45100;46.926;7.452;2023-04-25T05:42:19;94759.28;;;7.13;80.84
59329;BME280;45100;46.926;7.452;2023-04-25T05:44:50;94766.91;;;7.10;82.02
59329;BME280;45100;46.926;7.452;2023-04-25T05:47:21;94766.97;;;7.11;83.19
59329;BME280;45100;46.926;7.452;2023-04-25T05:49:51;94762.56;;;7.14;83.83
59329;BME280;45100;46.926;7.452;2023-04-25T05:52:23;94758.40;;;7.18;83.84
59329;BME280;45100;46.926;7.452;2023-04-25T05:54:53;94756.66;;;7.20;83.90
59329;BME280;45100;46.926;7.452;2023-04-25T05:57:25;94752.22;;;7.22;84.19
59329;BME280;45100;46.926;7.452;2023-04-25T05:59:54;94755.20;;;7.23;83.79
59329;BME280;45100;46.926;7.452;2023-04-25T06:02:25;94764.80;;;7.24;83.30
59329;BME280;45100;46.926;7.452;2023-04-25T06:04:56;94769.53;;;7.24;83.87
59329;BME280;45100;46.926;7.452;2023-04-25T06:07:26;94769.35;;;7.20;84.00
59329;BME280;45100;46.926;7.452;2023-04-25T06:09:57;94779.72;;;7.15;84.85
59329;BME280;45100;46.926;7.452;2023-04-25T06:12:28;94778.77;;;7.08;86.02
59329;BME280;45100;46.926;7.452;2023-04-25T06:14:59;94771.73;;;7.07;87.02
59329;BME280;45100;46.926;7.452;2023-04-25T06:17:29;94779.60;;;7.10;86.49
59329;BME280;45100;46.926;7.452;2023-04-25T06:20:00;94779.94;;;7.15;86.93
59329;BME280;45100;46.926;7.452;2023-04-25T06:22:31;94779.41;;;7.20;86.78
59329;BME280;45100;46.926;7.452;2023-04-25T06:25:05;94776.53;;;7.25;87.14
59329;BME280;45100;46.926;7.452;2023-04-25T06:27:32;94783.75;;;7.30;87.28
59329;BME280;45100;46.926;7.452;2023-04-25T06:30:04;94775.88;;;7.36;87.69
59329;BME280;45100;46.926;7.452;2023-04-25T06:32:34;94770.43;;;7.41;87.99
59329;BME280;45100;46.926;7.452;2023-04-25T06:35:05;94778.71;;;7.44;87.73
59329;BME280;45100;46.926;7.452;2023-04-25T06:37:34;94782.62;;;7.44;87.63
59329;BME280;45100;46.926;7.452;2023-04-25T06:40:06;94788.66;;;7.47;87.64
59329;BME280;45100;46.926;7.452;2023-04-25T06:42:35;94795.67;;;7.48;87.51
59329;BME280;45100;46.926;7.452;2023-04-25T06:45:07;94796.50;;;7.48;86.98
59329;BME280;45100;46.926;7.452;2023-04-25T06:47:37;94788.02;;;7.50;87.52
59329;BME280;45100;46.926;7.452;2023-04-25T06:50:08;94782.61;;;7.56;87.63
59329;BME280;45100;46.926;7.452;2023-04-25T06:52:38;94778.20;;;7.65;87.61
59329;BME280;45100;46.926;7.452;2023-04-25T06:55:09;94773.34;;;7.78;87.72
59329;BME280;45100;46.926;7.452;2023-04-25T06:57:40;94772.03;;;7.93;87.20
59329;BME280;45100;46.926;7.452;2023-04-25T07:02:45;94770.38;;;8.24;86.19
59329;BME280;45100;46.926;7.452;2023-04-25T07:05:15;94769.94;;;8.39;84.95
59329;BME280;45100;46.926;7.452;2023-04-25T07:07:45;94769.25;;;8.51;84.22
59329;BME280;45100;46.926;7.452;2023-04-25T07:10:16;94772.77;;;8.58;83.69
59329;BME280;45100;46.926;7.452;2023-04-25T07:12:47;94768.20;;;8.62;83.05
59329;BME280;45100;46.926;7.452;2023-04-25T07:15:17;94762.53;;;8.62;83.13
59329;BME280;45100;46.926;7.452;2023-04-25T07:17:48;94758.06;;;8.64;83.26
59329;BME280;45100;46.926;7.452;2023-04-25T07:20:19;94760.32;;;8.64;82.74
59329;BME280;45100;46.926;7.452;2023-04-25T07:22:50;94793.94;;;8.57;81.27
59329;BME280;45100;46.926;7.452;2023-04-25T07:25:20;94814.56;;;8.29;78.17
59329;BME280;45100;46.926;7.452;2023-04-25T07:27:51;94809.17;;;7.48;97.02
59329;BME280;45100;46.926;7.452;2023-04-25T07:30:22;94808.70;;;6.84;94.75
59329;BME280;45100;46.926;7.452;2023-04-25T07:32:52;94803.97;;;6.42;96.17
59329;BME280;45100;46.926;7.452;2023-04-25T07:35:22;94814.00;;;6.24;98.43
59329;BME280;45100;46.926;7.452;2023-04-25T07:37:53;94808.16;;;6.17;99.68
59329;BME280;45100;46.926;7.452;2023-04-25T07:40:24;94814.95;;;6.12;98.95
59329;BME280;45100;46.926;7.452;2023-04-25T07:42:55;94802.98;;;6.07;98.86
59329;BME280;45100;46.926;7.452;2023-04-25T07:45:25;94811.25;;;6.04;97.82
59329;BME280;45100;46.926;7.452;2023-04-25T07:47:56;94811.83;;;6.02;96.10
59329;BME280;45100;46.926;7.452;2023-04-25T07:50:27;94805.02;;;5.97;92.99
59329;BME280;45100;46.926;7.452;2023-04-25T07:52:58;94812.90;;;5.92;90.82
59329;BME280;45100;46.926;7.452;2023-04-25T07:58:01;94811.30;;;5.93;91.95
59329;BME280;45100;46.926;7.452;2023-04-25T08:00:32;94819.67;;;5.99;91.48
59329;BME280;45100;46.926;7.452;2023-04-25T08:03:01;94821.84;;;6.04;91.14
59329;BME280;45100;46.926;7.452;2023-04-25T08:05:32;94824.96;;;6.12;92.18
59329;BME280;45100;46.926;7.452;2023-04-25T08:08:03;94824.91;;;6.25;92.79
59329;BME280;45100;46.926;7.452;2023-04-25T08:10:34;94824.22;;;6.43;92.91
59329;BME280;45100;46.926;7.452;2023-04-25T08:13:05;94827.91;;;6.67;92.83
59329;BME280;45100;46.926;7.452;2023-04-25T08:15:36;94830.94;;;6.98;91.77
59329;BME280;45100;46.926;7.452;2023-04-25T08:18:07;94823.17;;;7.33;89.97
59329;BME280;45100;46.926;7.452;2023-04-25T08:20:36;94827.29;;;7.61;86.87
59329;BME280;45100;46.926;7.452;2023-04-25T08:23:08;94827.03;;;7.82;85.36
59329;BME280;45100;46.926;7.452;2023-04-25T08:25:38;94828.66;;;7.98;85.03
59329;BME280;45100;46.926;7.452;2023-04-25T08:28:08;94827.74;;;8.17;84.84
59329;BME280;45100;46.926;7.452;2023-04-25T08:30:40;94826.50;;;8.39;83.75
59329;BME280;45100;46.926;7.452;2023-04-25T08:33:11;94830.80;;;8.63;84.05
59329;BME280;45100;46.926;7.452;2023-04-25T08:35:40;94838.38;;;8.78;82.71
59329;BME280;45100;46.926;7.452;2023-04-25T08:38:10;94845.91;;;8.90;82.17
59329;BME280;45100;46.926;7.452;2023-04-25T08:40:43;94847.82;;;8.97;82.46
59329;BME280;45100;46.926;7.452;2023-04-25T08:45:46;94837.41;;;9.14;82.65
59329;BME280;45100;46.926;7.452;2023-04-25T08:48:16;94834.57;;;9.27;81.48
59329;BME280;45100;46.926;7.452;2023-04-25T08:50:50;94839.92;;;9.39;80.19
59329;BME280;45100;46.926;7.452;2023-04-25T08:53:26;94836.09;;;9.39;78.75
59329;BME280;45100;46.926;7.452;2023-04-25T08:55:48;94830.17;;;9.29;79.34
59329;BME280;45100;46.926;7.452;2023-04-25T08:58:18;94841.29;;;9.16;80.75
59329;BME280;45100;46.926;7.452;2023-04-25T09:00:49;94861.44;;;9.02;81.35
59329;BME280;45100;46.926;7.452;2023-04-25T09:03:18;94872.44;;;8.85;81.90
59329;BME280;45100;46.926;7.452;2023-04-25T09:05:49;94876.62;;;8.73;83.61
59329;BME280;45100;46.926;7.452;2023-04-25T09:08:20;94896.25;;;8.68;85.54
59329;BME280;45100;46.926;7.452;2023-04-25T09:10:50;94903.84;;;8.64;84.03
59329;BME280;45100;46.926;7.452;2023-04-25T09:13:27;94918.18;;;8.47;82.43
59329;BME280;45100;46.926;7.452;2023-04-25T09:15:54;94956.22;;;8.10;80.27
59329;BME280;45100;46.926;7.452;2023-04-25T09:18:26;94971.92;;;7.36;80.36
59329;BME280;45100;46.926;7.452;2023-04-25T09:20:53;94974.34;;;6.59;83.33
59329;BME280;45100;46.926;7.452;2023-04-25T09:23:24;94977.38;;;6.04;87.30
59329;BME280;45100;46.926;7.452;2023-04-25T09:25:54;94979.28;;;5.70;90.02
59329;BME280;45100;46.926;7.452;2023-04-25T09:28:25;94981.05;;;5.54;92.08
59329;BME280;45100;46.926;7.452;2023-04-25T09:30:56;94987.88;;;5.54;94.16
59329;BME280;45100;46.926;7.452;2023-04-25T09:33:29;94988.88;;;5.60;95.21
59329;BME280;45100;46.926;7.452;2023-04-25T09:36:07;94994.45;;;5.71;95.89
59329;BME280;45100;46.926;7.452;2023-04-25T09:38:26;94998.63;;;5.90;96.62
59329;BME280;45100;46.926;7.452;2023-04-25T09:40:57;94997.36;;;6.06;95.74
59329;BME280;45100;46.926;7.452;2023-04-25T09:43:28;94994.81;;;6.24;95.72
59329;BME280;45100;46.926;7.452;2023-04-25T09:46:02;94997.52;;;6.46;93.59
59329;BME280;45100;46.926;7.452;2023-04-25T09:48:29;95001.14;;;6.70;90.29
59329;BME280;45100;46.926;7.452;2023-04-25T09:51:06;95002.22;;;6.96;90.36
59329;BME280;45100;46.926;7.452;2023-04-25T09:53:29;95006.19;;;7.28;90.61
59329;BME280;45100;46.926;7.452;2023-04-25T09:56:03;95009.78;;;7.59;90.12
59329;BME280;45100;46.926;7.452;2023-04-25T09:58:32;95008.93;;;7.87;87.99
59329;BME280;45100;46.926;7.452;2023-04-25T10:01:04;95011.80;;;8.11;86.84
59329;BME280;45100;46.926;7.452;2023-04-25T10:03:34;95014.25;;;8.29;85.14
59329;BME280;45100;46.926;7.452;2023-04-25T10:06:07;95020.63;;;8.43;84.52
59329;BME280;45100;46.926;7.452;2023-04-25T10:08:36;95023.16;;;8.55;84.87
59329;BME280;45100;46.926;7.452;2023-04-25T10:11:05;95028.78;;;8.71;83.71
59329;BME280;45100;46.926;7.452;2023-04-25T10:13:35;95030.47;;;8.87;83.93
59329;BME280;45100;46.926;7.452;2023-04-25T10:16:05;95031.77;;;9.03;84.23
59329;BME280;45100;46.926;7.452;2023-04-25T10:18:37;95026.30;;;9.16;83.64
59329;BME280;45100;46.926;7.452;2023-04-25T10:21:06;95033.34;;;9.28;82.72
59329;BME280;45100;46.926;7.452;2023-04-25T10:23:36;95036.73;;;9.35;81.28
59329;BME280;45100;46.926;7.452;2023-04-25T10:26:13;95035.45;;;9.29;80.79
59329;BME280;45100;46.926;7.452;2023-04-25T10:28:57;95033.23;;;9.16;80.10
59329;BME280;45100;46.926;7.452;2023-04-25T10:31:08;95035.30;;;9.05;81.21
59329;BME280;45100;46.926;7.452;2023-04-25T10:33:39;95034.01;;;8.99;81.46
59329;BME280;45100;46.926;7.452;2023-04-25T10:36:12;95035.17;;;8.99;83.46
59329;BME280;45100;46.926;7.452;2023-04-25T10:38:39;95037.17;;;9.04;81.51
59329;BME280;45100;46.926;7.452;2023-04-25T10:41:10;95028.64;;;9.03;81.51
59329;BME280;45100;46.926;7.452;2023-04-25T10:43:43;95029.25;;;9.07;82.18
59329;BME280;45100;46.926;7.452;2023-04-25T10:46:24;95028.97;;;9.16;81.66
59329;BME280;45100;46.926;7.452;2023-04-25T10:48:45;95030.53;;;9.24;80.07
59329;BME280;45100;46.926;7.452;2023-04-25T10:51:12;95024.27;;;9.37;80.33
59329;BME280;45100;46.926;7.452;2023-04-25T10:53:41;95029.88;;;9.55;82.17
59329;BME280;45100;46.926;7.452;2023-04-25T10:56:19;95027.77;;;9.75;81.12
59329;BME280;45100;46.926;7.452;2023-04-25T10:58:43;95022.66;;;9.90;76.70
59329;BME280;45100;46.926;7.452;2023-04-25T11:01:20;95024.36;;;10.06;77.70
59329;BME280;45100;46.926;7.452;2023-04-25T11:03:45;95021.33;;;10.31;74.77
59329;BME280;45100;46.926;7.452;2023-04-25T11:06:27;95016.86;;;10.48;75.34
59329;BME280;45100;46.926;7.452;2023-04-25T11:08:48;95025.33;;;10.64;76.98
59329;BME280;45100;46.926;7.452;2023-04-25T11:11:14;95027.73;;;10.73;74.39
59329;BME280;45100;46.926;7.452;2023-04-25T11:13:44;95028.98;;;10.61;71.13
59329;BME280;45100;46.926;7.452;2023-04-25T11:16:14;95026.11;;;10.38;70.89
59329;BME280;45100;46.926;7.452;2023-04-25T11:18:45;95023.14;;;10.18;72.09
59329;BME280;45100;46.926;7.452;2023-04-25T11:21:16;95022.91;;;10.10;74.90
59329;BME280;45100;46.926;7.452;2023-04-25T11:23:46;95020.50;;;10.09;73.66
59329;BME280;45100;46.926;7.452;2023-04-25T11:26:19;95010.16;;;10.04;73.47
59329;BME280;45100;46.926;7.452;2023-04-25T11:28:49;95017.31;;;10.04;73.70
59329;BME280;45100;46.926;7.452;2023-04-25T11:31:20;95013.17;;;10.05;71.64
59329;BME280;45100;46.926;7.452;2023-04-25T11:33:48;95013.62;;;9.99;70.45
59329;BME280;45100;46.926;7.452;2023-04-25T11:36:18;95019.84;;;9.87;71.63
59329;BME280;45100;46.926;7.452;2023-04-25T11:38:50;95020.07;;;9.73;69.92
59329;BME280;45100;46.926;7.452;2023-04-25T11:41:20;95026.52;;;9.63;72.62
59329;BME280;45100;46.926;7.452;2023-04-25T11:43:52;95025.00;;;9.50;73.03
59329;BME280;45100;46.926;7.452;2023-04-25T11:46:21;95026.09;;;9.35;75.50
59329;BME280;45100;46.926;7.452;2023-04-25T11:51:22;95049.02;;;9.01;75.83
59329;BME280;45100;46.926;7.452;2023-04-25T11:53:52;95057.73;;;8.75;76.71
59329;BME280;45100;46.926;7.452;2023-04-25T11:56:23;95069.52;;;8.52;78.92
59329;BME280;45100;46.926;7.452;2023-04-25T11:58:55;95064.82;;;8.30;79.55
59329;BME280;45100;46.926;7.452;2023-04-25T12:01:25;95060.77;;;8.17;82.57
59329;BME280;45100;46.926;7.452;2023-04-25T12:03:55;95058.19;;;8.19;84.51
59329;BME280;45100;46.926;7.452;2023-04-25T12:06:29;95061.02;;;8.31;86.28
59329;BME280;45100;46.926;7.452;2023-04-25T12:09:00;95056.44;;;8.52;86.61
59329;BME280;45100;46.926;7.452;2023-04-25T12:11:27;95054.58;;;8.72;86.53
59329;BME280;45100;46.926;7.452;2023-04-25T12:14:03;95053.31;;;8.93;86.21
59329;BME280;45100;46.926;7.452;2023-04-25T12:16:28;95051.53;;;9.07;85.56
59329;BME280;45100;46.926;7.452;2023-04-25T12:19:00;95044.15;;;9.12;83.06
59329;BME280;45100;46.926;7.452;2023-04-25T12:21:32;95044.84;;;9.08;81.73
59329;BME280;45100;46.926;7.452;2023-04-25T12:24:14;95048.45;;;8.99;80.78
59329;BME280;45100;46.926;7.452;2023-04-25T12:26:48;95047.47;;;8.89;80.83
59329;BME280;45100;46.926;7.452;2023-04-25T12:29:15;95045.67;;;8.88;85.53
59329;BME280;45100;46.926;7.452;2023-04-25T12:31:33;95043.89;;;9.01;87.16
59329;BME280;45100;46.926;7.452;2023-04-25T12:34:04;95047.51;;;9.16;83.99
59329;BME280;45100;46.926;7.452;2023-04-25T12:36:33;95045.64;;;9.25;82.19
59329;BME280;45100;46.926;7.452;2023-04-25T12:39:05;95040.61;;;9.31;82.95
59329;BME280;45100;46.926;7.452;2023-04-25T12:41:34;95040.20;;;9.42;83.98
59329;BME280;45100;46.926;7.452;2023-04-25T12:44:06;95038.70;;;9.56;84.33
59329;BME280;45100;46.926;7.452;2023-04-25T12:46:36;95040.61;;;9.68;84.04
59329;BME280;45100;46.926;7.452;2023-04-25T12:49:09;95045.14;;;9.88;84.03
59329;BME280;45100;46.926;7.452;2023-04-25T12:51:37;95043.20;;;10.05;75.00
59329;BME280;45100;46.926;7.452;2023-04-25T12:54:09;95045.55;;;10.12;72.43
59329;BME280;45100;46.926;7.452;2023-04-25T12:56:38;95052.03;;;10.19;74.25
59329;BME280;45100;46.926;7.452;2023-04-25T12:59:09;95050.24;;;10.29;78.38
59329;BME280;45100;46.926;7.452;2023-04-25T13:04:12;95044.14;;;10.55;82.46
59329;BME280;45100;46.926;7.452;2023-04-25T13:06:42;95042.76;;;10.70;83.00
59329;BME280;45100;46.926;7.452;2023-04-25T13:11:46;95042.92;;;10.93;83.53
59329;BME280;45100;46.926;7.452;2023-04-25T13:14:16;95041.55;;;11.04;80.89
59329;BME280;45100;46.926;7.452;2023-04-25T13:16:47;95043.56;;;11.12;79.21
59329;BME280;45100;46.926;7.452;2023-04-25T13:19:17;95041.20;;;11.26;80.91
59329;BME280;45100;46.926;7.452;2023-04-25T13:21:47;95033.14;;;11.43;80.22
59329;BME280;45100;46.926;7.452;2023-04-25T13:24:18;95028.84;;;11.52;80.82
59329;BME280;45100;46.926;7.452;2023-04-25T13:26:48;95024.13;;;11.54;79.80
59329;BME280;45100;46.926;7.452;2023-04-25T13:29:18;95027.23;;;11.53;79.77
59329;BME280;45100;46.926;7.452;2023-04-25T13:31:49;95024.17;;;11.60;80.90
59329;BME280;45100;46.926;7.452;2023-04-25T13:34:20;95027.70;;;11.75;76.62
59329;BME280;45100;46.926;7.452;2023-04-25T13:36:50;95024.15;;;11.88;76.22
59329;BME280;45100;46.926;7.452;2023-04-25T13:39:21;95027.64;;;11.91;75.18
59329;BME280;45100;46.926;7.452;2023-04-25T13:41:52;95029.55;;;11.85;76.00
59329;BME280;45100;46.926;7.452;2023-04-25T13:44:23;95032.69;;;11.83;76.59
59329;BME280;45100;46.926;7.452;2023-04-25T13:46:53;95031.14;;;11.83;76.90